createdAt,value
2022-08-14T00:01:13.922Z,45.94
2022-08-14T00:03:44.747Z,45.90
2022-08-14T00:06:25.791Z,45.92
2022-08-14T00:08:59.594Z,45.75
2022-08-14T00:11:31.395Z,45.20
2022-08-14T00:14:04.045Z,45.91
2022-08-14T00:16:41.693Z,45.55
2022-08-14T00:19:19.819Z,45.77
2022-08-14T00:21:55.992Z,45.69
2022-08-14T00:24:30.493Z,46.00
2022-08-14T00:27:02.859Z,45.77
2022-08-14T00:29:40.689Z,46.08
2022-08-14T00:32:52.129Z,45.88
2022-08-14T00:35:06.587Z,45.95
2022-08-14T00:37:45.270Z,45.56
2022-08-14T00:40:33.036Z,45.54
2022-08-14T00:43:08.695Z,45.53
2022-08-14T00:45:40.255Z,45.63
2022-08-14T00:48:12.601Z,46.03
2022-08-14T00:51:03.426Z,45.55
2022-08-14T00:53:36.699Z,46.29
2022-08-14T00:56:09.286Z,45.60
2022-08-14T00:58:45.445Z,45.72
2022-08-14T01:01:20.298Z,45.83
2022-08-14T01:03:52.668Z,45.68
2022-08-14T01:06:24.770Z,45.96
2022-08-14T01:09:05.947Z,45.68
2022-08-14T01:11:45.212Z,46.16
2022-08-14T01:14:33.538Z,45.85
2022-08-14T01:17:08.920Z,45.82
2022-08-14T01:19:56.944Z,46.29
2022-08-14T01:22:29.708Z,45.74
2022-08-14T01:25:00.505Z,46.21
2022-08-14T01:27:31.686Z,45.67
2022-08-14T01:30:22.888Z,45.68
2022-08-14T01:32:55.485Z,46.43
2022-08-14T01:36:03.760Z,46.39
2022-08-14T01:38:22.110Z,46.03
2022-08-14T01:40:53.565Z,46.17
2022-08-14T01:43:30.898Z,45.89
2022-08-14T01:46:24.434Z,46.41
2022-08-14T01:48:57.828Z,46.48
2022-08-14T01:51:31.891Z,46.04
2022-08-14T01:54:11.027Z,46.29
2022-08-14T01:56:45.305Z,46.06
2022-08-14T01:59:37.555Z,46.08
2022-08-14T02:02:14.701Z,46.32
2022-08-14T02:04:57.265Z,46.47
2022-08-14T02:07:53.430Z,46.36
2022-08-14T02:10:26.201Z,46.03
2022-08-14T02:12:59.677Z,46.62
2022-08-14T02:15:31.465Z,46.41
2022-08-14T02:18:04.818Z,46.42
2022-08-14T02:20:36.167Z,46.75
2022-08-14T02:23:08.209Z,46.04
2022-08-14T02:25:41.128Z,46.14
2022-08-14T02:28:22.295Z,46.58
2022-08-14T02:31:03.493Z,46.72
2022-08-14T02:33:42.899Z,46.64
2022-08-14T02:37:02.507Z,46.18
2022-08-14T02:39:05.392Z,46.58
2022-08-14T02:41:45.033Z,46.80
2022-08-14T02:44:29.843Z,46.22
2022-08-14T02:47:01.322Z,46.95
2022-08-14T02:49:34.183Z,46.33
2022-08-14T02:52:26.857Z,46.19
2022-08-14T02:54:58.841Z,46.90
2022-08-14T02:57:40.109Z,46.34
2022-08-14T03:00:14.159Z,46.61
2022-08-14T03:02:58.771Z,46.76
2022-08-14T03:05:35.810Z,46.63
2022-08-14T03:08:15.134Z,46.90
2022-08-14T03:10:49.150Z,46.40
2022-08-14T03:13:23.281Z,46.89
2022-08-14T03:15:58.077Z,46.92
2022-08-14T03:18:32.593Z,46.95
2022-08-14T03:21:06.011Z,46.33
2022-08-14T03:23:38.634Z,47.07
2022-08-14T03:26:12.868Z,46.40
2022-08-14T03:28:54.397Z,47.06
2022-08-14T03:31:28.024Z,46.50
2022-08-14T03:34:00.567Z,47.13
2022-08-14T03:37:39.494Z,46.67
2022-08-14T03:39:27.452Z,46.48
2022-08-14T03:42:01.648Z,46.53
2022-08-14T03:45:20.037Z,47.33
2022-08-14T03:47:46.023Z,47.29
2022-08-14T03:50:20.819Z,46.72
2022-08-14T03:53:00.508Z,46.93
2022-08-14T03:55:31.968Z,47.25
2022-08-14T03:58:02.230Z,47.42
2022-08-14T04:00:43.133Z,47.40
2022-08-14T04:03:24.125Z,47.31
2022-08-14T04:05:55.837Z,47.39
2022-08-14T04:08:30.649Z,46.80
2022-08-14T04:11:07.855Z,46.80
2022-08-14T04:13:43.573Z,47.53
2022-08-14T04:16:23.750Z,47.03
2022-08-14T04:18:57.431Z,47.56
2022-08-14T04:21:30.814Z,46.99
2022-08-14T04:24:11.393Z,47.42
2022-08-14T04:26:44.749Z,47.06
2022-08-14T04:29:16.876Z,47.46
2022-08-14T04:32:59.108Z,47.03
2022-08-14T04:34:42.307Z,47.43
2022-08-14T04:37:42.673Z,47.04
2022-08-14T04:40:30.787Z,47.05
2022-08-14T04:43:18.821Z,47.61
2022-08-14T04:45:52.235Z,47.41
2022-08-14T04:48:38.760Z,47.61
2022-08-14T04:51:18.073Z,47.20
2022-08-14T04:53:51.410Z,47.70
2022-08-14T04:56:34.262Z,47.25
2022-08-14T04:59:09.460Z,47.29
2022-08-14T05:01:48.009Z,47.35
2022-08-14T05:04:25.725Z,47.10
2022-08-14T05:06:58.547Z,47.68
2022-08-14T05:09:30.705Z,47.13
2022-08-14T05:13:14.319Z,47.69
2022-08-14T05:14:53.335Z,47.74
2022-08-14T05:17:32.198Z,47.67
2022-08-14T05:21:04.764Z,47.58
2022-08-14T05:23:08.488Z,47.70
2022-08-14T05:25:41.412Z,47.22
2022-08-14T05:28:20.489Z,47.36
2022-08-14T05:30:53.079Z,47.67
2022-08-14T05:33:26.010Z,47.35
2022-08-14T05:36:01.828Z,47.39
2022-08-14T05:38:36.039Z,47.15
2022-08-14T05:41:10.237Z,47.16
2022-08-14T05:43:42.829Z,47.34
2022-08-14T05:46:19.016Z,47.59
2022-08-14T05:48:53.955Z,47.54
2022-08-14T05:51:28.672Z,47.53
2022-08-14T05:54:13.828Z,47.45
2022-08-14T05:56:52.093Z,47.11
2022-08-14T05:59:36.732Z,47.67
2022-08-14T06:02:11.208Z,46.99
2022-08-14T06:04:49.547Z,47.25
2022-08-14T06:07:22.804Z,47.29
2022-08-14T06:09:53.755Z,46.89
2022-08-14T06:12:55.341Z,47.40
2022-08-14T06:15:15.405Z,47.43
2022-08-14T06:17:55.854Z,47.26
2022-08-14T06:20:30.978Z,46.84
2022-08-14T06:23:03.390Z,47.27
2022-08-14T06:25:34.827Z,47.19
2022-08-14T06:28:07.300Z,46.55
2022-08-14T06:30:58.564Z,46.73
2022-08-14T06:35:01.356Z,46.65
2022-08-14T06:36:21.539Z,47.18
2022-08-14T06:38:55.850Z,47.05
2022-08-14T06:41:58.006Z,46.94
2022-08-14T06:44:16.326Z,46.87
2022-08-14T06:46:49.412Z,46.67
2022-08-14T06:49:20.215Z,46.61
2022-08-14T06:51:50.503Z,46.62
2022-08-14T06:54:31.723Z,46.65
2022-08-14T06:57:02.806Z,46.96
2022-08-14T06:59:34.335Z,46.44
2022-08-14T07:02:22.711Z,46.24
2022-08-14T07:05:09.960Z,46.30
2022-08-14T07:07:47.753Z,46.73
2022-08-14T07:10:21.331Z,46.26
2022-08-14T07:12:56.677Z,46.49
2022-08-14T07:15:33.842Z,46.38
2022-08-14T07:18:08.722Z,46.34
2022-08-14T07:20:40.420Z,46.53
2022-08-14T07:23:20.805Z,45.81
2022-08-14T07:25:56.463Z,46.46
2022-08-14T07:28:33.768Z,46.40
2022-08-14T07:31:09.863Z,45.80
2022-08-14T07:33:45.627Z,45.73
2022-08-14T07:36:27.958Z,45.83
2022-08-14T07:39:12.067Z,45.78
2022-08-14T07:41:46.147Z,46.10
2022-08-14T07:44:29.511Z,46.19
2022-08-14T07:47:05.422Z,45.84
2022-08-14T07:49:36.351Z,45.65
2022-08-14T07:52:08.218Z,46.15
2022-08-14T07:54:38.834Z,46.04
2022-08-14T07:57:12.056Z,45.21
2022-08-14T07:59:48.370Z,45.67
2022-08-14T08:02:21.975Z,45.37
2022-08-14T08:04:59.176Z,45.94
2022-08-14T08:07:33.535Z,45.79
2022-08-14T08:10:46.308Z,45.56
2022-08-14T08:13:24.676Z,45.23
2022-08-14T08:16:02.562Z,45.78
2022-08-14T08:18:33.529Z,45.36
2022-08-14T08:21:07.343Z,45.71
2022-08-14T08:23:40.544Z,45.71
2022-08-14T08:26:21.326Z,45.38
2022-08-14T08:29:02.933Z,45.72
2022-08-14T08:31:35.198Z,45.56
2022-08-14T08:34:14.067Z,45.27
2022-08-14T08:36:46.603Z,44.87
2022-08-14T08:39:22.285Z,45.31
2022-08-14T08:41:54.023Z,44.93
2022-08-14T08:44:34.227Z,44.84
2022-08-14T08:47:08.304Z,45.22
2022-08-14T08:49:53.014Z,45.25
2022-08-14T08:52:32.068Z,45.06
2022-08-14T08:55:04.849Z,45.29
2022-08-14T08:57:39.152Z,44.84
2022-08-14T09:00:25.477Z,45.18
2022-08-14T09:03:02.556Z,44.67
2022-08-14T09:05:36.924Z,44.95
2022-08-14T09:08:30.763Z,44.65
2022-08-14T09:11:19.424Z,44.67
2022-08-14T09:13:55.385Z,44.32
2022-08-14T09:16:28.710Z,44.82
2022-08-14T09:18:59.629Z,44.48
2022-08-14T09:21:31.621Z,44.48
2022-08-14T09:24:28.281Z,44.34
2022-08-14T09:26:54.379Z,44.46
2022-08-14T09:29:25.042Z,44.51
2022-08-14T09:32:26.908Z,44.28
2022-08-14T09:35:12.236Z,44.32
2022-08-14T09:38:00.697Z,44.12
2022-08-14T09:40:50.592Z,43.91
2022-08-14T09:43:33.646Z,43.75
2022-08-14T09:46:09.488Z,44.12
2022-08-14T09:48:43.173Z,43.84
2022-08-14T09:51:26.441Z,44.10
2022-08-14T09:54:18.852Z,43.97
2022-08-14T09:56:56.585Z,43.80
2022-08-14T09:59:33.445Z,44.08
2022-08-14T10:02:07.588Z,43.53
2022-08-14T10:04:46.322Z,43.57
2022-08-14T10:07:20.419Z,43.82
2022-08-14T10:09:57.792Z,43.85
2022-08-14T10:12:48.076Z,44.02
2022-08-14T10:15:25.592Z,43.71
2022-08-14T10:18:18.486Z,43.49
2022-08-14T10:20:58.765Z,43.53
2022-08-14T10:23:41.580Z,43.59
2022-08-14T10:26:22.904Z,43.72
2022-08-14T10:29:18.396Z,43.57
2022-08-14T10:32:01.177Z,43.68
2022-08-14T10:34:40.876Z,43.55
2022-08-14T10:37:17.478Z,43.73
2022-08-14T10:40:05.733Z,43.43
2022-08-14T10:42:47.388Z,43.59
2022-08-14T10:45:24.451Z,43.33
2022-08-14T10:48:08.801Z,43.55
2022-08-14T10:50:51.899Z,43.27
2022-08-14T10:53:39.248Z,43.33
2022-08-14T10:56:21.378Z,43.45
2022-08-14T10:59:06.530Z,43.69
2022-08-14T11:01:41.822Z,43.17
2022-08-14T11:04:30.170Z,43.71
2022-08-14T11:07:01.602Z,43.59
2022-08-14T11:09:34.419Z,43.38
2022-08-14T11:12:33.881Z,43.22
2022-08-14T11:15:02.139Z,43.25
2022-08-14T11:17:36.990Z,43.34
2022-08-14T11:20:14.206Z,43.14
2022-08-14T11:22:56.233Z,43.69
2022-08-14T11:25:36.743Z,43.08
2022-08-14T11:28:19.413Z,43.75
2022-08-14T11:30:54.357Z,43.57
2022-08-14T11:33:33.036Z,43.29
2022-08-14T11:36:18.528Z,43.29
2022-08-14T11:38:49.663Z,43.68
2022-08-14T11:41:25.783Z,43.18
2022-08-14T11:43:58.716Z,43.41
2022-08-14T11:46:37.742Z,43.18
2022-08-14T11:49:10.900Z,43.62
2022-08-14T11:51:52.951Z,43.59
2022-08-14T11:54:34.561Z,43.66
2022-08-14T11:57:07.632Z,43.29
2022-08-14T11:59:44.145Z,43.43
2022-08-14T12:02:38.997Z,43.46
2022-08-14T12:05:10.984Z,42.87
2022-08-14T12:07:53.686Z,42.78
2022-08-14T12:10:26.047Z,43.20
2022-08-14T12:13:27.416Z,43.33
2022-08-14T12:16:06.373Z,43.46
2022-08-14T12:18:45.257Z,42.78
2022-08-14T12:21:19.669Z,42.99
2022-08-14T12:24:02.204Z,42.95
2022-08-14T12:26:40.775Z,43.23
2022-08-14T12:29:16.661Z,42.72
2022-08-14T12:31:51.588Z,43.22
2022-08-14T12:34:24.257Z,42.73
2022-08-14T12:37:09.269Z,43.25
2022-08-14T12:39:40.916Z,42.71
2022-08-14T12:42:27.134Z,43.28
2022-08-14T12:45:06.038Z,42.58
2022-08-14T12:47:38.867Z,43.06
2022-08-14T12:50:11.066Z,43.05
2022-08-14T12:52:56.184Z,43.30
2022-08-14T12:56:18.415Z,42.63
2022-08-14T12:58:51.634Z,42.99
2022-08-14T13:01:27.916Z,43.17
2022-08-14T13:04:10.980Z,42.60
2022-08-14T13:06:44.696Z,42.92
2022-08-14T13:09:23.312Z,43.31
2022-08-14T13:11:59.011Z,42.69
2022-08-14T13:14:54.330Z,43.22
2022-08-14T13:17:38.213Z,43.12
2022-08-14T13:20:23.223Z,42.76
2022-08-14T13:22:56.953Z,43.02
2022-08-14T13:25:31.491Z,43.08
2022-08-14T13:28:10.928Z,42.99
2022-08-14T13:30:47.051Z,42.65
2022-08-14T13:33:21.835Z,43.12
2022-08-14T13:35:52.787Z,42.92
2022-08-14T13:38:24.249Z,42.95
2022-08-14T13:40:59.253Z,43.01
2022-08-14T13:43:36.523Z,42.88
2022-08-14T13:46:08.137Z,42.95
2022-08-14T13:48:44.727Z,43.49
2022-08-14T13:51:20.255Z,43.02
2022-08-14T13:54:08.146Z,43.14
2022-08-14T13:56:43.252Z,43.24
2022-08-14T13:59:16.021Z,43.17
2022-08-14T14:01:52.983Z,43.44
2022-08-14T14:04:33.856Z,43.51
2022-08-14T14:07:08.569Z,43.37
2022-08-14T14:09:51.038Z,43.61
2022-08-14T14:12:37.286Z,43.57
2022-08-14T14:15:22.985Z,43.31
2022-08-14T14:18:05.523Z,43.62
2022-08-14T14:20:58.596Z,43.03
2022-08-14T14:23:32.503Z,43.35
2022-08-14T14:26:05.712Z,43.37
2022-08-14T14:28:36.849Z,42.93
2022-08-14T14:31:09.446Z,43.49
2022-08-14T14:33:49.203Z,42.94
2022-08-14T14:36:25.459Z,43.33
2022-08-14T14:38:58.687Z,43.61
2022-08-14T14:41:38.111Z,43.55
2022-08-14T14:44:13.461Z,43.44
2022-08-14T14:46:53.214Z,43.71
2022-08-14T14:49:31.923Z,43.40
2022-08-14T14:52:23.364Z,43.20
2022-08-14T14:54:58.906Z,43.61
2022-08-14T14:57:35.691Z,43.19
2022-08-14T15:00:12.984Z,43.60
2022-08-14T15:02:46.757Z,43.64
2022-08-14T15:05:20.778Z,43.73
2022-08-14T15:07:54.854Z,43.65
2022-08-14T15:10:30.554Z,43.80
2022-08-14T15:13:05.236Z,43.30
2022-08-14T15:15:36.891Z,43.99
2022-08-14T15:18:36.553Z,43.51
2022-08-14T15:21:03.072Z,43.78
2022-08-14T15:23:44.328Z,43.65
2022-08-14T15:26:23.966Z,44.20
2022-08-14T15:29:05.857Z,44.04
2022-08-14T15:31:38.720Z,43.56
2022-08-14T15:34:43.194Z,43.99
2022-08-14T15:37:11.051Z,43.81
2022-08-14T15:39:45.962Z,44.08
2022-08-14T15:42:17.074Z,43.91
2022-08-14T15:44:58.525Z,43.63
2022-08-14T15:47:35.556Z,44.25
2022-08-14T15:50:13.364Z,43.99
2022-08-14T15:52:45.005Z,43.65
2022-08-14T15:55:18.686Z,44.05
2022-08-14T15:57:51.303Z,44.18
2022-08-14T16:00:51.964Z,43.81
2022-08-14T16:03:27.482Z,44.25
2022-08-14T16:06:10.786Z,44.40
2022-08-14T16:08:50.461Z,43.91
2022-08-14T16:11:33.027Z,43.99
2022-08-14T16:14:06.660Z,44.56
2022-08-14T16:16:50.136Z,44.02
2022-08-14T16:19:27.972Z,44.39
2022-08-14T16:22:59.221Z,44.64
2022-08-14T16:25:02.530Z,44.49
2022-08-14T16:27:40.907Z,44.02
2022-08-14T16:30:20.527Z,44.11
2022-08-14T16:33:01.054Z,44.49
2022-08-14T16:38:45.314Z,44.71
2022-08-14T16:41:39.306Z,44.45
2022-08-14T16:44:31.971Z,44.27
2022-08-14T16:47:07.862Z,44.86
2022-08-14T16:50:04.854Z,44.41
2022-08-14T16:52:44.097Z,44.40
2022-08-14T16:55:22.111Z,44.22
2022-08-14T16:58:00.522Z,44.35
2022-08-14T17:00:44.148Z,44.70
2022-08-14T17:03:17.496Z,44.32
2022-08-14T17:05:49.225Z,44.20
2022-08-14T17:08:28.600Z,44.46
2022-08-14T17:11:10.718Z,44.59
2022-08-14T17:13:57.882Z,44.97
2022-08-14T17:16:39.476Z,44.63
2022-08-14T17:19:17.387Z,44.82
2022-08-14T17:21:48.653Z,44.34
2022-08-14T17:24:58.364Z,44.37
2022-08-14T17:27:18.551Z,44.67
2022-08-14T17:29:56.129Z,44.81
2022-08-14T17:32:56.245Z,44.35
2022-08-14T17:35:57.706Z,44.63
2022-08-14T17:38:39.216Z,44.28
2022-08-14T17:41:32.924Z,44.66
2022-08-14T17:44:33.927Z,44.63
2022-08-14T17:47:13.606Z,44.37
2022-08-14T17:49:54.783Z,44.98
2022-08-14T17:52:36.259Z,44.84
2022-08-14T17:56:02.037Z,44.51
2022-08-14T17:58:20.507Z,44.44
2022-08-14T18:01:03.772Z,44.85
2022-08-14T18:03:50.919Z,45.00
2022-08-14T18:06:39.296Z,44.68
2022-08-14T18:09:27.615Z,45.15
2022-08-14T18:12:07.874Z,45.07
2022-08-14T18:14:48.801Z,44.88
2022-08-14T18:17:23.958Z,45.10
2022-08-14T18:19:57.620Z,44.99
2022-08-14T18:22:39.367Z,44.76
2022-08-14T18:25:19.305Z,44.40
2022-08-14T18:27:57.179Z,44.80
2022-08-14T18:30:40.278Z,44.30
2022-08-14T18:33:21.009Z,44.44
2022-08-14T18:35:58.518Z,44.50
2022-08-14T18:38:45.508Z,44.40
2022-08-14T18:41:36.905Z,44.94
2022-08-14T18:44:10.447Z,45.13
2022-08-14T18:47:28.778Z,44.62
2022-08-14T18:50:27.417Z,44.58
2022-08-14T18:53:15.252Z,45.02
2022-08-14T18:55:55.402Z,44.70
2022-08-14T18:58:33.910Z,45.23
2022-08-14T19:01:07.170Z,45.21
2022-08-14T19:04:04.100Z,44.54
2022-08-14T19:06:56.234Z,44.66
2022-08-14T19:09:57.995Z,44.43
2022-08-14T19:13:12.003Z,44.46
2022-08-14T19:15:56.293Z,45.23
2022-08-14T19:18:30.990Z,45.29
2022-08-14T19:21:29.827Z,45.00
2022-08-14T19:24:27.523Z,45.15
2022-08-14T19:27:23.541Z,44.58
2022-08-14T19:30:25.264Z,45.04
2022-08-14T19:33:03.726Z,45.35
2022-08-14T19:35:59.951Z,44.94
2022-08-14T19:38:54.193Z,45.32
2022-08-14T19:41:34.082Z,44.95
2022-08-14T19:44:16.252Z,45.32
2022-08-14T19:47:00.407Z,44.96
2022-08-14T19:50:08.373Z,45.29
2022-08-14T19:52:37.144Z,44.94
2022-08-14T19:55:34.146Z,45.03
2022-08-14T19:58:07.644Z,44.89
2022-08-14T20:00:52.010Z,45.25
2022-08-14T20:03:58.995Z,44.64
2022-08-14T20:06:22.462Z,44.72
2022-08-14T20:11:00.609Z,45.40
2022-08-14T20:12:02.226Z,44.67
2022-08-14T20:14:51.801Z,44.81
2022-08-14T20:17:28.063Z,44.66
2022-08-14T20:20:01.367Z,45.22
2022-08-14T20:22:39.737Z,45.21
2022-08-14T20:25:26.364Z,45.27
2022-08-14T20:27:59.261Z,45.30
2022-08-14T20:30:33.957Z,44.53
2022-08-14T20:33:11.051Z,45.26
2022-08-14T20:35:53.804Z,45.18
2022-08-14T20:38:33.353Z,44.93
2022-08-14T20:41:09.660Z,44.55
2022-08-14T20:44:02.745Z,44.80
2022-08-14T20:46:42.158Z,44.83
2022-08-14T20:49:18.908Z,45.00
2022-08-14T20:51:59.554Z,45.04
2022-08-14T20:54:36.253Z,44.98
2022-08-14T20:57:21.464Z,44.99
2022-08-14T20:59:57.591Z,44.98
2022-08-14T21:02:50.829Z,44.94
2022-08-14T21:05:33.673Z,44.56
2022-08-14T21:08:08.216Z,44.66
2022-08-14T21:10:57.470Z,45.04
2022-08-14T21:14:20.717Z,44.33
2022-08-14T21:16:36.015Z,44.38
2022-08-14T21:19:16.404Z,44.98
2022-08-14T21:21:55.011Z,45.09
2022-08-14T21:24:47.143Z,44.67
2022-08-14T21:27:21.866Z,44.37
2022-08-14T21:29:55.843Z,44.79
2022-08-14T21:32:50.265Z,45.01
2022-08-14T21:35:31.217Z,44.67
2022-08-14T21:38:18.037Z,44.47
2022-08-14T21:40:53.424Z,44.99
2022-08-14T21:43:31.684Z,44.70
2022-08-14T21:46:04.196Z,44.84
2022-08-14T21:48:39.421Z,45.12
2022-08-14T21:51:56.150Z,44.62
2022-08-14T21:54:30.201Z,45.29
2022-08-14T21:57:04.683Z,44.85
2022-08-14T21:59:46.024Z,44.91
2022-08-14T22:02:33.351Z,44.39
2022-08-14T22:05:04.390Z,44.50
2022-08-14T22:07:38.920Z,44.32
2022-08-14T22:10:13.995Z,45.05
2022-08-14T22:13:00.839Z,44.43
2022-08-14T22:15:34.766Z,44.34
2022-08-14T22:18:06.381Z,44.57
2022-08-14T22:20:39.131Z,44.65
2022-08-14T22:23:15.427Z,44.98
2022-08-14T22:25:49.301Z,44.82
2022-08-14T22:28:26.208Z,44.35
2022-08-14T22:31:10.045Z,44.25
2022-08-14T22:33:43.505Z,44.38
2022-08-14T22:36:45.385Z,44.35
2022-08-14T22:39:20.133Z,44.53
2022-08-14T22:42:21.300Z,44.52
2022-08-14T22:44:56.458Z,44.59
2022-08-14T22:47:40.584Z,44.63
2022-08-14T22:50:29.242Z,44.54
2022-08-14T22:53:06.783Z,44.41
2022-08-14T22:55:55.228Z,44.35
2022-08-14T22:58:30.615Z,44.85
2022-08-14T23:01:11.859Z,44.53
2022-08-14T23:03:46.323Z,44.70
2022-08-14T23:07:03.526Z,44.89
2022-08-14T23:09:35.424Z,44.92
2022-08-14T23:12:04.703Z,44.30
2022-08-14T23:14:56.467Z,44.49
2022-08-14T23:17:27.262Z,44.70
2022-08-14T23:19:58.271Z,44.25
2022-08-14T23:22:28.916Z,44.21
2022-08-14T23:25:00.896Z,44.37
2022-08-14T23:28:03.020Z,44.15
2022-08-14T23:30:34.156Z,44.90
2022-08-14T23:33:07.982Z,44.86
2022-08-14T23:35:59.246Z,44.75
2022-08-14T23:38:31.548Z,44.73
2022-08-14T23:41:04.165Z,44.97
2022-08-14T23:43:36.013Z,44.47
2022-08-14T23:46:12.618Z,44.34
2022-08-14T23:48:47.010Z,44.83
2022-08-14T23:51:22.126Z,44.70
2022-08-14T23:53:54.857Z,44.69
2022-08-14T23:56:34.435Z,44.22
2022-08-14T23:59:07.165Z,44.80
